Time;durP1;ratioP1;P1;durP2;ratioP2;P2;SDS_P1;SDS_P2;PMS_P1;PMS_P2;Temp;Humidity;BMP_temperature;BMP_pressure;BME280_temperature;BME280_humidity;BME280_pressure;Samples;Min_cycle;Max_cycle;Signal;HPM_P1;HPM_P2
2021/08/16 00:00:13;;;;;;;;;;;19.70;99.90;;;19.66;80.01;100819.56;5012014;28;20356;-63
2021/08/16 00:02:41;;;;;;;;;;;19.70;99.90;;;19.52;80.33;100820.78;5011616;28;19931;-63
2021/08/16 00:05:09;;;;;;;;;;;19.60;99.90;;;19.34;81.35;100818.63;5011966;28;19934;-63
2021/08/16 00:07:37;;;;;;;;;;;19.40;99.90;;;19.12;82.56;100821.94;5012335;28;19979;-63
2021/08/16 00:10:07;;;;;;;;;;;19.30;99.90;;;19.03;83.64;100825.56;5011942;28;20380;-63
2021/08/16 00:12:35;;;;;;;;;;;19.10;99.90;;;18.77;84.69;100824.38;5014029;28;20020;-63
2021/08/16 00:15:04;;;;;;;;;;;18.80;99.90;;;18.56;85.17;100810.81;5015502;28;19929;-63
2021/08/16 00:17:32;;;;;;;;;;;18.60;99.90;;;18.41;86.27;100822.44;5015856;28;19929;-63
2021/08/16 00:20:00;;;;;;;;;;;18.60;99.90;;;18.30;86.77;100827.53;5014693;28;19925;-63
2021/08/16 00:22:28;;;;;;;;;;;18.40;99.90;;;18.21;87.23;100821.38;5015829;28;19932;-62
2021/08/16 00:24:55;;;;;;;;;;;18.30;99.90;;;18.14;87.60;100817.63;5014682;28;19929;-62
2021/08/16 00:27:24;;;;;;;;;;;18.20;99.90;;;18.12;87.11;100825.38;5015861;28;19933;-61
2021/08/16 00:29:52;;;;;;;;;;;;;;;18.06;86.96;100819.31;5015051;28;19930;-61
2021/08/16 00:32:20;;;;;;;;;;;18.10;99.90;;;18.09;86.47;100813.16;5015624;28;19979;-62
2021/08/16 00:34:48;;;;;;;;;;;18.10;99.90;;;18.17;86.07;100812.25;5014770;28;20032;-62
2021/08/16 00:37:16;;;;;;;;;;;18.20;99.90;;;18.20;85.75;100810.78;5015520;28;19932;-61
2021/08/16 00:39:44;;;;;;;;;;;18.20;99.90;;;18.19;85.60;100820.13;5014800;28;19925;-61
2021/08/16 00:42:12;;;;;;;;;;;18.20;99.90;;;18.27;85.55;100814.53;5015475;28;19926;-61
2021/08/16 00:44:42;;;;;;;;;;;18.30;99.90;;;18.37;85.90;100814.09;5014718;28;19932;-61
2021/08/16 00:47:09;;;;;;;;;;;18.40;99.90;;;18.43;84.24;100812.72;5015647;28;19930;-62
2021/08/16 00:49:37;;;;;;;;;;;18.50;99.90;;;18.44;83.29;100808.84;5014792;28;19925;-62
2021/08/16 00:52:06;;;;;;;;;;;18.50;99.90;;;18.42;83.45;100805.63;5015311;28;19933;-61
2021/08/16 00:54:34;;;;;;;;;;;18.50;99.90;;;18.38;83.48;100812.16;5014343;28;20467;-62
2021/08/16 00:57:02;;;;;;;;;;;18.50;99.90;;;18.39;82.96;100800.84;5015252;28;19926;-61
2021/08/16 00:59:31;;;;;;;;;;;18.50;99.90;;;18.41;83.30;100808.75;5014745;28;20261;-62
2021/08/16 01:02:00;;;;;;;;;;;18.50;99.90;;;18.49;83.06;100805.09;5015436;28;19926;-61
2021/08/16 01:04:29;;;;;;;;;;;18.50;99.90;;;18.55;81.86;100811.94;5014439;28;19933;-61
2021/08/16 01:06:57;;;;;;;;;;;18.50;99.90;;;18.48;81.75;100804.28;5015041;28;20373;-62
2021/08/16 01:09:24;;;;;;;;;;;18.50;99.90;;;18.43;83.27;100817.41;5014577;28;19925;-61
2021/08/16 01:11:53;;;;;;;;;;;18.50;99.90;;;18.43;83.21;100812.72;5015249;28;20361;-62
2021/08/16 01:14:21;;;;;;;;;;;18.40;99.90;;;18.34;82.49;100814.78;5014103;28;19929;-62
2021/08/16 01:16:49;;;;;;;;;;;18.40;99.90;;;18.37;81.78;100816.84;5015006;28;19938;-61
2021/08/16 01:19:20;;;;;;;;;;;18.30;99.90;;;18.35;81.58;100816.38;5014197;28;19926;-62
2021/08/16 01:21:47;;;;;;;;;;;18.30;99.90;;;18.33;81.62;100815.91;5014958;28;19933;-60
2021/08/16 01:24:16;;;;;;;;;;;18.30;99.90;;;18.31;81.77;100814.66;5012773;28;20373;-61
2021/08/16 01:26:45;;;;;;;;;;;18.10;99.90;;;18.08;83.25;100816.25;5014857;28;20407;-61
2021/08/16 01:29:17;;;;;;;;;;;18.10;99.90;;;17.80;84.51;100821.53;5014069;28;19932;-62
2021/08/16 01:31:45;;;;;;;;;;;17.90;99.90;;;17.70;86.74;100811.81;5014700;28;19961;-61
2021/08/16 01:34:13;;;;;;;;;;;17.80;99.90;;;17.63;87.60;100811.56;5013703;28;19928;-61
2021/08/16 01:36:41;;;;;;;;;;;17.70;99.90;;;17.53;87.79;100811.16;5014437;28;19936;-61
2021/08/16 01:39:10;;;;;;;;;;;17.60;99.90;;;17.34;88.12;100817.91;5014076;28;19973;-61
2021/08/16 01:41:38;;;;;;;;;;;17.50;99.90;;;17.37;89.62;100822.72;5014421;28;19930;-61
2021/08/16 01:44:14;;;;;;;;;;;17.50;99.90;;;17.50;90.17;100820.84;5013756;28;20036;-61
2021/08/16 01:46:42;;;;;;;;;;;17.50;99.90;;;17.47;89.83;100819.56;5014386;28;19940;-61
2021/08/16 01:49:10;;;;;;;;;;;17.60;99.90;;;17.24;90.28;100812.84;5013754;28;19936;-61
2021/08/16 01:51:38;;;;;;;;;;;17.40;99.90;;;17.20;92.69;100825.59;5014442;28;19929;-61
2021/08/16 01:54:07;;;;;;;;;;;;;;;17.24;92.77;100815.59;5013546;28;19922;-61
2021/08/16 01:56:35;;;;;;;;;;;17.40;99.90;;;17.30;92.95;100814.25;5014112;28;19932;-62
2021/08/16 01:59:03;;;;;;;;;;;17.40;99.90;;;17.36;92.50;100815.63;5013457;28;20308;-61
2021/08/16 02:01:32;;;;;;;;;;;17.40;99.90;;;17.34;91.78;100809.72;5013996;28;19938;-61
2021/08/16 02:04:00;;;;;;;;;;;17.40;99.90;;;17.40;91.88;100813.03;5013392;28;19925;-61
2021/08/16 02:06:28;;;;;;;;;;;17.50;99.90;;;17.46;91.18;100807.03;5014179;28;20339;-61
2021/08/16 02:08:56;;;;;;;;;;;17.60;99.90;;;17.50;91.03;100807.16;5013275;28;19929;-62
2021/08/16 02:11:24;;;;;;;;;;;17.60;99.90;;;17.57;90.31;100807.44;5013788;28;19926;-60
2021/08/16 02:13:51;;;;;;;;;;;17.60;99.90;;;17.61;90.17;100799.34;5012891;28;19983;-61
2021/08/16 02:16:19;;;;;;;;;;;17.70;99.90;;;17.67;88.94;100803.47;5013940;28;19980;-61
2021/08/16 02:18:48;;;;;;;;;;;17.80;99.90;;;17.66;88.68;100799.94;5013471;28;19925;-61
2021/08/16 02:21:16;;;;;;;;;;;17.80;99.90;;;17.67;88.23;100800.75;5013277;28;19926;-61
2021/08/16 02:23:44;;;;;;;;;;;17.70;99.90;;;17.69;88.94;100810.22;5012906;28;19925;-61
2021/08/16 02:26:12;;;;;;;;;;;17.70;99.90;;;17.67;88.77;100817.97;5013734;28;19948;-61
2021/08/16 02:28:39;;;;;;;;;;;17.70;99.90;;;17.61;89.50;100804.81;5013229;28;20288;-61
2021/08/16 02:31:07;;;;;;;;;;;17.70;99.90;;;17.60;89.89;100808.72;5013220;28;19936;-61
2021/08/16 02:33:35;;;;;;;;;;;17.70;99.90;;;17.56;90.66;100805.06;5013041;28;19945;-61
2021/08/16 02:36:04;;;;;;;;;;;17.70;99.90;;;17.57;91.15;100810.16;5013276;28;19925;-61
2021/08/16 02:38:32;;;;;;;;;;;17.70;99.90;;;17.62;90.80;100801.78;5013017;28;19952;-61
2021/08/16 02:41:00;;;;;;;;;;;17.70;99.90;;;17.57;91.39;100807.44;5012971;28;19926;-61
2021/08/16 02:43:28;;;;;;;;;;;17.70;99.90;;;17.66;91.02;100808.16;5012860;28;19925;-61
2021/08/16 02:45:56;;;;;;;;;;;17.70;99.90;;;17.68;90.79;100810.56;5013453;28;20416;-61
2021/08/16 02:48:24;;;;;;;;;;;17.80;99.90;;;17.62;91.04;100803.69;5013026;28;19925;-61
2021/08/16 02:50:52;;;;;;;;;;;17.70;99.90;;;17.69;91.28;100806.69;5012818;28;19948;-61
2021/08/16 02:53:21;;;;;;;;;;;17.70;99.90;;;17.84;90.56;100798.63;5012500;28;19933;-60
2021/08/16 02:55:49;;;;;;;;;;;17.80;99.90;;;18.03;88.93;100804.38;5012916;28;19936;-60
2021/08/16 02:58:16;;;;;;;;;;;18.00;99.90;;;18.05;88.79;100797.75;5013180;28;19933;-60
2021/08/16 03:00:44;;;;;;;;;;;18.10;99.90;;;17.98;89.44;100796.38;5012789;28;19925;-60
2021/08/16 03:03:12;;;;;;;;;;;18.10;99.90;;;17.99;89.88;100808.13;5012307;28;19930;-60
2021/08/16 03:05:40;;;;;;;;;;;18.00;99.90;;;17.91;89.70;100807.09;5012782;28;19933;-60
2021/08/16 03:08:08;;;;;;;;;;;18.00;99.90;;;17.85;89.81;100804.91;5012567;28;19932;-61
2021/08/16 03:10:37;;;;;;;;;;;18.00;99.90;;;17.86;90.02;100801.03;5012552;28;19932;-60
2021/08/16 03:13:05;;;;;;;;;;;17.90;99.90;;;17.97;89.36;100802.19;5012021;28;19925;-60
2021/08/16 03:15:33;;;;;;;;;;;18.00;99.90;;;18.11;88.37;100807.34;5012595;28;20312;-60
2021/08/16 03:18:01;;;;;;;;;;;18.10;99.90;;;18.10;88.52;100808.47;5012800;28;19933;-60
2021/08/16 03:20:30;;;;;;;;;;;18.20;99.90;;;18.03;88.30;100803.56;5011785;28;20419;-60
2021/08/16 03:22:57;;;;;;;;;;;18.10;99.90;;;17.98;88.20;100812.00;5012179;28;19929;-61
2021/08/16 03:25:25;;;;;;;;;;;18.10;99.90;;;17.94;87.74;100806.41;5012400;28;19930;-61
2021/08/16 03:27:55;;;;;;;;;;;18.10;99.90;;;17.86;89.10;100804.56;5012709;28;19949;-61
2021/08/16 03:30:22;;;;;;;;;;;18.00;99.90;;;17.85;88.64;100818.56;5012087;28;19929;-60
2021/08/16 03:32:50;;;;;;;;;;;18.00;99.90;;;17.86;88.06;100814.72;5011943;28;19937;-60
2021/08/16 03:35:18;;;;;;;;;;;18.00;99.90;;;17.87;86.15;100816.31;5012255;28;20029;-60
2021/08/16 03:37:46;;;;;;;;;;;17.90;99.90;;;17.84;85.48;100819.72;5012759;28;19926;-61
2021/08/16 03:40:15;;;;;;;;;;;17.80;99.90;;;17.87;84.97;100810.84;5011843;28;20015;-62
2021/08/16 03:42:43;;;;;;;;;;;17.90;99.90;;;17.92;84.46;100802.41;5012200;28;19932;-59
2021/08/16 03:45:15;;;;;;;;;;;17.90;99.90;;;18.15;82.50;100800.06;5012043;28;20288;-61
2021/08/16 03:47:43;;;;;;;;;;;18.10;99.90;;;18.35;81.33;100790.94;5014420;28;19925;-62
2021/08/16 03:50:13;;;;;;;;;;;18.30;99.90;;;18.42;81.35;100799.41;5016009;28;20336;-61
2021/08/16 03:52:43;;;;;;;;;;;18.50;99.90;;;18.40;81.97;100794.25;5016120;28;19932;-62
2021/08/16 03:55:11;;;;;;;;;;;18.40;99.90;;;18.42;82.21;100805.63;5015743;28;19965;-63
2021/08/16 03:57:39;;;;;;;;;;;18.50;99.90;;;18.43;82.48;100804.50;5016288;28;19930;-61
2021/08/16 04:00:09;;;;;;;;;;;18.50;99.90;;;18.41;83.01;100809.53;5015892;28;19972;-61
2021/08/16 04:02:40;;;;;;;;;;;18.50;99.90;;;18.41;83.77;100811.47;5015645;28;19929;-61
2021/08/16 04:05:09;;;;;;;;;;;18.50;99.90;;;18.42;84.57;100808.38;5015963;28;19980;-61
2021/08/16 04:07:37;;;;;;;;;;;18.50;99.90;;;18.39;85.17;100817.28;5016100;28;20355;-61
2021/08/16 04:10:05;;;;;;;;;;;18.50;99.90;;;18.46;85.16;100812.03;5015697;28;19932;-61
2021/08/16 04:12:33;;;;;;;;;;;18.50;99.90;;;18.45;85.57;100815.13;5015766;28;19925;-61
2021/08/16 04:15:01;;;;;;;;;;;18.50;99.90;;;18.38;86.72;100810.22;5015406;28;19930;-62
2021/08/16 04:17:29;;;;;;;;;;;18.40;99.90;;;18.23;87.74;100808.16;5016031;28;19929;-62
2021/08/16 04:19:58;;;;;;;;;;;18.20;99.90;;;17.98;90.28;100814.75;5015390;28;19933;-62
2021/08/16 04:22:26;;;;;;;;;;;18.00;99.90;;;17.71;89.40;100818.09;5015822;28;19925;-61
2021/08/16 04:24:54;;;;;;;;;;;17.60;99.90;;;17.42;90.52;100821.69;5014829;28;19926;-61
2021/08/16 04:27:21;;;;;;;;;;;17.60;99.90;;;17.20;91.68;100814.66;5015913;28;19961;-61
2021/08/16 04:29:49;;;;;;;;;;;17.40;99.90;;;16.90;93.34;100813.13;5015096;28;19930;-61
2021/08/16 04:32:17;;;;;;;;;;;17.10;99.90;;;16.74;95.68;100817.56;5015598;28;19933;-61
2021/08/16 04:34:44;;;;;;;;;;;16.90;99.90;;;16.75;97.26;100838.25;5014930;28;19948;-61
2021/08/16 04:37:14;;;;;;;;;;;16.90;99.90;;;16.83;97.30;100827.31;5015868;28;20410;-61
2021/08/16 04:39:41;;;;;;;;;;;16.90;99.90;;;16.70;98.01;100827.53;5014794;28;19929;-61
2021/08/16 04:42:09;;;;;;;;;;;16.80;99.90;;;16.61;99.47;100818.59;5015180;28;19933;-61
2021/08/16 04:44:37;;;;;;;;;;;16.80;99.90;;;16.61;100.00;100824.06;5014745;28;19926;-61
2021/08/16 04:47:05;;;;;;;;;;;16.70;99.90;;;16.70;100.00;100824.81;5015616;28;19929;-61
2021/08/16 04:49:33;;;;;;;;;;;16.80;99.90;;;16.82;100.00;100820.25;5015194;28;20285;-61
2021/08/16 04:52:01;;;;;;;;;;;16.90;99.90;;;16.87;100.00;100814.56;5015240;28;20403;-60
2021/08/16 04:54:30;;;;;;;;;;;17.00;99.90;;;16.94;100.00;100819.50;5014606;28;19938;-61
2021/08/16 04:56:58;;;;;;;;;;;17.00;99.90;;;16.89;100.00;100819.72;5015112;28;19929;-60
2021/08/16 04:59:26;;;;;;;;;;;17.00;99.90;;;16.89;100.00;100825.19;5014790;28;19972;-61
2021/08/16 05:01:55;;;;;;;;;;;17.00;99.90;;;16.88;100.00;100829.03;5015172;28;19933;-60
2021/08/16 05:04:23;;;;;;;;;;;16.90;99.90;;;16.82;100.00;100827.63;5014377;28;20285;-61
2021/08/16 05:06:50;;;;;;;;;;;16.90;99.90;;;16.86;100.00;100831.31;5015180;28;19963;-61
2021/08/16 05:09:18;;;;;;;;;;;17.00;99.90;;;16.98;100.00;100836.03;5014698;28;19926;-60
2021/08/16 05:11:47;;;;;;;;;;;17.10;99.90;;;17.05;100.00;100828.94;5015014;28;19997;-60
2021/08/16 05:14:16;;;;;;;;;;;17.10;99.90;;;16.94;100.00;100830.44;5014075;28;19922;-61
2021/08/16 05:16:43;;;;;;;;;;;17.10;99.90;;;16.87;100.00;100835.66;5014943;28;19980;-60
2021/08/16 05:19:11;;;;;;;;;;;17.00;99.90;;;16.88;100.00;100834.50;5014357;28;19926;-60
2021/08/16 05:21:39;;;;;;;;;;;16.90;99.90;;;16.81;100.00;100840.47;5014831;28;19929;-59
2021/08/16 05:24:07;;;;;;;;;;;16.90;99.90;;;16.78;100.00;100843.88;5013894;28;19922;-59
2021/08/16 05:26:34;;;;;;;;;;;16.80;99.90;;;16.78;100.00;100843.06;5014840;28;20292;-61
2021/08/16 05:29:03;;;;;;;;;;;16.80;99.90;;;16.74;100.00;100853.88;5014270;28;19925;-60
2021/08/16 05:31:31;;;;;;;;;;;16.80;99.90;;;16.81;100.00;100851.41;5014390;28;19933;-58
2021/08/16 05:33:59;;;;;;;;;;;16.80;99.90;;;16.84;100.00;100852.69;5013597;28;19929;-60
2021/08/16 05:36:27;;;;;;;;;;;16.80;99.90;;;16.79;100.00;100859.13;5014669;28;19926;-61
2021/08/16 05:38:54;;;;;;;;;;;16.80;99.90;;;16.74;100.00;100861.25;5014374;28;19995;-61
2021/08/16 05:41:22;;;;;;;;;;;16.70;99.90;;;16.65;100.00;100858.59;5014546;28;19929;-60
2021/08/16 05:43:50;;;;;;;;;;;16.70;99.90;;;16.53;100.00;100858.44;5013479;28;19960;-61
2021/08/16 05:46:19;;;;;;;;;;;16.60;99.90;;;16.42;100.00;100860.72;5014298;28;19932;-61
2021/08/16 05:48:47;;;;;;;;;;;16.50;99.90;;;16.25;100.00;100871.72;5014013;28;19952;-61
2021/08/16 05:51:15;;;;;;;;;;;16.30;99.90;;;16.24;100.00;100867.38;5014103;28;19948;-60
2021/08/16 05:53:43;;;;;;;;;;;16.20;99.90;;;16.22;100.00;100877.81;5013423;28;19932;-61
2021/08/16 05:56:10;;;;;;;;;;;16.20;99.90;;;16.15;100.00;100872.06;5013975;28;19926;-61
2021/08/16 05:58:38;;;;;;;;;;;16.20;99.90;;;16.11;100.00;100875.78;5013944;28;19930;-61
2021/08/16 06:01:07;;;;;;;;;;;16.10;99.90;;;16.16;100.00;100873.69;5013874;28;19930;-60
2021/08/16 06:03:36;;;;;;;;;;;16.20;99.90;;;16.32;100.00;100876.69;5013288;28;19933;-61
2021/08/16 06:06:04;;;;;;;;;;;16.30;99.90;;;16.44;100.00;100879.53;5013962;28;19926;-61
2021/08/16 06:08:32;;;;;;;;;;;16.50;99.90;;;16.66;100.00;100887.47;5013555;28;19952;-61
2021/08/16 06:11:00;;;;;;;;;;;16.60;99.90;;;16.96;100.00;100882.03;5012872;28;20392;-62
2021/08/16 06:13:28;;;;;;;;;;;16.90;99.90;;;17.17;99.86;100888.31;5012740;28;19989;-61
2021/08/16 06:15:55;;;;;;;;;;;17.20;99.90;;;17.36;96.10;100885.91;5013579;28;19937;-62
2021/08/16 06:18:23;;;;;;;;;;;17.40;99.90;;;17.83;93.99;100883.78;5013516;28;20396;-61
2021/08/16 06:20:54;;;;;;;;;;;17.80;99.90;;;18.51;89.57;100874.81;5013410;28;19933;-61
2021/08/16 06:23:21;;;;;;;;;;;18.50;99.90;;;19.23;84.25;100877.84;5012594;28;19929;-61
2021/08/16 06:25:50;;;;;;;;;;;19.20;99.90;;;19.80;79.54;100872.88;5013515;28;19975;-62
2021/08/16 06:28:17;;;;;;;;;;;19.80;99.90;;;20.26;76.48;100865.91;5013522;28;19930;-62
2021/08/16 06:30:45;;;;;;;;;;;20.30;99.90;;;20.74;74.47;100870.22;5013362;28;19925;-62
2021/08/16 06:33:13;;;;;;;;;;;20.80;99.90;;;21.16;71.86;100864.94;5012698;28;20340;-62
2021/08/16 06:35:40;;;;;;;;;;;21.30;99.90;;;21.77;69.19;100867.78;5013316;28;19933;-63
2021/08/16 06:38:20;;;;;;;;;;;21.90;99.90;;;22.47;67.32;100857.25;5013251;28;19925;-61
2021/08/16 06:40:48;;;;;;;;;;;22.60;99.90;;;23.25;64.96;100853.75;5012880;28;20020;-62
2021/08/16 06:43:16;;;;;;;;;;;23.30;99.90;;;23.93;62.18;100849.81;5012553;28;19925;-62
2021/08/16 06:45:44;;;;;;;;;;;24.10;99.90;;;24.28;61.32;100854.94;5012962;28;19925;-61
2021/08/16 06:48:12;;;;;;;;;;;24.60;99.90;;;24.71;60.02;100862.41;5013371;28;19932;-61
2021/08/16 06:50:40;;;;;;;;;;;25.20;99.90;;;25.45;57.87;100862.03;5012504;28;19980;-61
2021/08/16 06:53:12;;;;;;;;;;;25.90;99.90;;;26.32;53.61;100860.75;5012380;28;19936;-61
2021/08/16 06:55:40;;;;;;;;;;;26.80;99.90;;;26.86;50.94;100858.75;5012821;28;19932;-61
2021/08/16 06:58:08;;;;;;;;;;;27.50;99.90;;;27.01;50.61;100858.31;5013032;28;19926;-61
2021/08/16 07:00:35;;;;;;;;;;;28.00;99.90;;;27.15;50.04;100858.28;5009853;28;19925;-61
2021/08/16 07:03:03;;;;;;;;;;;28.30;99.90;;;27.37;49.36;100863.75;5011201;28;19926;-62
2021/08/16 07:05:31;;;;;;;;;;;28.70;99.90;;;27.25;49.09;100867.78;5012654;28;19925;-62
2021/08/16 07:07:59;;;;;;;;;;;29.00;99.90;;;26.64;50.14;100877.38;5012856;28;19930;-62
2021/08/16 07:10:30;;;;;;;;;;;28.80;99.90;;;26.05;52.67;100885.22;5012733;28;19925;-61
2021/08/16 07:12:58;;;;;;;;;;;28.30;99.90;;;25.35;55.46;100890.50;5012217;28;19925;-62
2021/08/16 07:15:26;;;;;;;;;;;27.40;99.90;;;24.79;58.23;100888.13;4992928;28;19926;-61
2021/08/16 07:17:53;;;;;;;;;;;26.40;99.90;;;24.35;60.46;100905.53;4993133;28;19926;-61
2021/08/16 07:20:21;;;;;;;;;;;25.50;99.90;;;24.06;63.77;100902.84;4992870;28;19936;-62
2021/08/16 07:22:49;;;;;;;;;;;24.80;99.90;;;23.92;65.48;100907.03;4994854;28;19930;-61
2021/08/16 07:25:17;;;;;;;;;;;24.50;99.90;;;23.70;66.63;100909.91;5012883;28;20292;-62
2021/08/16 07:27:46;;;;;;;;;;;24.20;99.90;;;23.48;69.10;100911.63;5012962;28;19926;-62
2021/08/16 07:30:14;;;;;;;;;;;23.90;99.90;;;23.28;71.53;100921.19;5012770;28;19936;-62
2021/08/16 07:32:42;;;;;;;;;;;23.60;99.90;;;23.20;73.58;100928.53;5012339;28;19926;-62
2021/08/16 07:35:11;;;;;;;;;;;23.50;99.90;;;23.23;73.83;100919.53;5012102;28;19933;-61
2021/08/16 07:37:39;;;;;;;;;;;23.50;99.90;;;23.18;75.37;100922.59;5013100;28;19925;-61
2021/08/16 07:40:08;;;;;;;;;;;23.40;99.90;;;23.11;75.67;100925.25;5012783;28;19926;-61
2021/08/16 07:42:35;;;;;;;;;;;23.30;99.90;;;23.09;76.78;100926.78;5012823;28;19956;-60
2021/08/16 07:45:06;;;;;;;;;;;23.30;99.90;;;23.07;77.20;100927.16;5011934;28;19929;-59
2021/08/16 07:47:33;;;;;;;;;;;23.20;99.90;;;23.07;78.81;100935.44;5012795;28;19925;-58
2021/08/16 07:50:01;;;;;;;;;;;23.20;99.90;;;23.20;79.34;100941.53;5012912;28;19925;-58
2021/08/16 07:52:29;;;;;;;;;;;23.30;99.90;;;23.37;78.73;100933.53;5012852;28;19935;-59
2021/08/16 07:54:57;;;;;;;;;;;23.50;99.90;;;23.42;77.80;100940.72;5012215;28;20388;-59
2021/08/16 07:57:25;;;;;;;;;;;23.60;99.90;;;23.35;78.72;100935.06;5012653;28;19930;-59
2021/08/16 07:59:53;;;;;;;;;;;23.50;99.90;;;23.42;79.10;100937.16;5012576;28;19933;-59
2021/08/16 08:02:22;;;;;;;;;;;23.60;99.90;;;23.70;79.20;100924.53;5012640;28;19932;-58
2021/08/16 08:04:50;;;;;;;;;;;23.90;99.90;;;23.88;77.61;100935.78;5011606;28;19925;-59
2021/08/16 08:07:18;;;;;;;;;;;24.00;99.90;;;24.06;77.72;100927.69;5011756;28;20262;-58
2021/08/16 08:09:45;;;;;;;;;;;24.30;99.90;;;24.26;76.07;100929.91;5010845;28;19925;-59
2021/08/16 08:12:13;;;;;;;;;;;24.50;99.90;;;24.43;74.56;100920.22;5010894;28;19925;-59
2021/08/16 08:14:41;;;;;;;;;;;24.70;99.90;;;24.62;74.07;100920.00;5010266;28;19934;-59
2021/08/16 08:17:08;;;;;;;;;;;24.90;99.90;;;24.72;71.93;100919.28;5011793;28;19925;-58
2021/08/16 08:19:38;;;;;;;;;;;24.90;99.90;;;24.73;72.81;100926.41;5012030;28;19929;-59
2021/08/16 08:22:06;;;;;;;;;;;24.90;99.90;;;24.87;73.31;100921.00;5011942;28;19925;-58
2021/08/16 08:24:33;;;;;;;;;;;25.10;99.90;;;25.02;72.70;100910.81;5011034;28;19925;-59
2021/08/16 08:27:01;;;;;;;;;;;25.30;99.90;;;25.25;70.73;100925.22;5012261;28;19937;-59
2021/08/16 08:29:29;;;;;;;;;;;25.50;99.90;;;25.43;71.51;100923.34;5012462;28;19929;-59
2021/08/16 08:31:57;;;;;;;;;;;25.70;99.90;;;25.44;71.33;100929.69;5012450;28;19932;-59
2021/08/16 08:34:24;;;;;;;;;;;25.70;99.90;;;25.45;70.38;100922.94;5014323;28;20031;-59
2021/08/16 08:36:54;;;;;;;;;;;25.80;99.90;;;25.54;70.14;100921.44;5015923;28;19941;-59
2021/08/16 08:39:21;;;;;;;;;;;25.90;99.90;;;25.44;70.20;100919.38;5015997;28;19930;-59
2021/08/16 08:41:51;;;;;;;;;;;25.80;99.90;;;25.43;71.84;100917.00;5015911;28;19961;-58
2021/08/16 08:44:19;;;;;;;;;;;25.70;99.90;;;25.54;72.19;100921.44;5015002;28;20383;-59
2021/08/16 08:46:46;;;;;;;;;;;25.90;99.90;;;25.62;72.59;100911.22;5015789;28;19925;-59
2021/08/16 08:49:14;;;;;;;;;;;26.00;99.90;;;25.59;72.50;100920.31;5015777;28;20009;-59
2021/08/16 08:51:42;;;;;;;;;;;26.00;99.90;;;25.61;73.17;100925.44;5015822;28;19930;-60
2021/08/16 08:54:12;;;;;;;;;;;26.00;99.90;;;25.65;73.40;100920.72;5014085;28;19971;-59
2021/08/16 08:56:39;;;;;;;;;;;26.10;99.90;;;25.62;73.54;100924.25;5015180;28;19932;-59
2021/08/16 08:59:07;;;;;;;;;;;26.00;99.90;;;25.53;74.07;100919.09;5015397;28;19926;-59
2021/08/16 09:01:35;;;;;;;;;;;26.00;99.90;;;25.58;74.33;100926.22;5015181;28;19929;-59
2021/08/16 09:04:03;;;;;;;;;;;26.00;99.90;;;25.53;74.43;100927.38;5014120;28;19930;-59
2021/08/16 09:06:32;;;;;;;;;;;26.00;99.90;;;25.50;74.96;100934.47;5015080;28;19929;-58
2021/08/16 09:09:01;;;;;;;;;;;25.90;99.90;;;25.54;74.83;100940.84;5015190;28;19926;-59
2021/08/16 09:11:30;;;;;;;;;;;26.00;99.90;;;25.63;74.63;100939.66;5015175;28;19929;-59
2021/08/16 09:14:00;;;;;;;;;;;26.00;99.90;;;25.57;75.10;100947.56;5013934;28;20415;-59
2021/08/16 09:16:29;;;;;;;;;;;26.00;99.90;;;25.39;75.12;100946.66;5014942;28;19932;-58
2021/08/16 09:18:58;;;;;;;;;;;25.90;99.90;;;25.31;75.90;100945.03;5015135;28;19925;-59
2021/08/16 09:21:27;;;;;;;;;;;25.80;99.90;;;25.18;75.70;100941.78;5014984;28;19925;-60
2021/08/16 09:23:57;;;;;;;;;;;25.60;99.90;;;25.11;76.26;100944.50;5013521;28;19929;-59
2021/08/16 09:26:26;;;;;;;;;;;25.50;99.90;;;25.16;75.79;100951.66;5014682;28;19929;-59
2021/08/16 09:28:56;;;;;;;;;;;25.50;99.90;;;25.16;76.19;100955.22;5014971;28;19926;-59
2021/08/16 09:31:24;;;;;;;;;;;25.50;99.90;;;24.99;76.76;100959.44;5014693;28;20335;-60
2021/08/16 09:33:54;;;;;;;;;;;25.40;99.90;;;24.92;78.26;100956.63;5013731;28;19929;-58
2021/08/16 09:36:22;;;;;;;;;;;25.30;99.90;;;24.99;77.27;100966.94;5014762;28;19929;-58
2021/08/16 09:38:50;;;;;;;;;;;25.30;99.90;;;25.00;76.91;100969.31;5014725;28;19934;-59
2021/08/16 09:41:22;;;;;;;;;;;25.30;99.90;;;24.87;77.30;100964.47;5014791;28;20355;-59
2021/08/16 09:43:50;;;;;;;;;;;25.20;99.90;;;24.80;78.17;100958.84;5013004;28;19929;-59
2021/08/16 09:46:20;;;;;;;;;;;25.10;99.90;;;24.80;78.69;100965.19;5013673;28;19925;-59
2021/08/16 09:48:57;;;;;;;;;;;25.10;99.90;;;24.84;77.63;100966.03;5014211;28;19926;-58
2021/08/16 09:51:25;;;;;;;;;;;25.20;99.90;;;24.90;78.61;100966.47;5014590;28;19930;-58
2021/08/16 09:53:54;;;;;;;;;;;25.20;99.90;;;24.96;78.34;100962.97;5013276;28;19932;-59
2021/08/16 09:56:22;;;;;;;;;;;25.20;99.90;;;25.11;76.75;100968.63;5013914;28;19932;-58
2021/08/16 09:58:50;;;;;;;;;;;25.40;99.90;;;25.11;77.74;100972.16;5014041;28;19932;-59
2021/08/16 10:01:19;;;;;;;;;;;25.40;99.90;;;25.23;77.00;100960.00;5014075;28;19933;-59
2021/08/16 10:03:47;;;;;;;;;;;25.50;99.90;;;25.19;77.21;100962.75;5012874;28;20454;-59
2021/08/16 10:06:17;;;;;;;;;;;25.50;99.90;;;25.19;77.78;100967.47;5014212;28;19944;-59
2021/08/16 10:08:47;;;;;;;;;;;25.50;99.90;;;25.21;75.92;100965.13;5013935;28;19929;-59
2021/08/16 10:11:18;;;;;;;;;;;25.50;99.90;;;25.18;76.98;100965.88;5014062;28;19975;-59
2021/08/16 10:13:50;;;;;;;;;;;25.50;99.90;;;25.27;76.32;100967.13;5012810;28;19932;-59
2021/08/16 10:16:22;;;;;;;;;;;25.50;99.90;;;25.43;75.42;100961.31;5013911;28;19925;-59
2021/08/16 10:18:52;;;;;;;;;;;25.60;99.90;;;25.51;74.51;100974.84;5013825;28;20024;-58
2021/08/16 10:21:22;;;;;;;;;;;25.80;99.90;;;25.54;75.12;100970.50;5013828;28;19926;-58
2021/08/16 10:23:51;;;;;;;;;;;25.80;99.90;;;25.62;73.77;100974.91;5012392;28;19968;-58
2021/08/16 10:26:29;;;;;;;;;;;25.90;99.90;;;25.58;74.25;100984.34;5013733;28;19968;-59
2021/08/16 10:28:58;;;;;;;;;;;25.80;99.90;;;25.58;73.36;100978.81;5013710;28;19938;-59
2021/08/16 10:31:29;;;;;;;;;;;25.80;99.90;;;25.48;73.69;100978.38;5013578;28;20031;-59
2021/08/16 10:33:57;;;;;;;;;;;25.80;99.90;;;25.49;73.79;100976.41;5012323;28;19933;-59
2021/08/16 10:36:25;;;;;;;;;;;25.80;99.90;;;25.57;74.12;100968.91;5013570;28;19929;-58
2021/08/16 10:38:55;;;;;;;;;;;25.80;99.90;;;25.64;73.29;100968.97;5013504;28;19925;-59
2021/08/16 10:41:29;;;;;;;;;;;25.90;99.90;;;25.65;73.11;100974.13;5013541;28;20281;-59
2021/08/16 10:43:58;;;;;;;;;;;25.90;99.90;;;25.72;73.20;100976.13;5011949;28;19933;-58
2021/08/16 10:46:27;;;;;;;;;;;26.00;99.90;;;25.77;73.31;100979.34;5013317;28;19941;-58
2021/08/16 10:49:03;;;;;;;;;;;26.00;99.90;;;25.98;71.37;100973.06;5013121;28;20021;-59
2021/08/16 10:51:42;;;;;;;;;;;26.20;99.90;;;26.04;71.03;100975.09;5013328;28;19925;-58
2021/08/16 10:54:10;;;;;;;;;;;26.30;99.90;;;26.20;71.26;100971.22;5012307;28;19933;-59
2021/08/16 10:56:38;;;;;;;;;;;26.40;99.90;;;26.46;69.34;100974.44;5012647;28;19925;-59
2021/08/16 10:59:06;;;;;;;;;;;26.70;99.90;;;26.36;68.87;100974.41;5013132;28;20304;-59
2021/08/16 11:01:36;;;;;;;;;;;26.70;99.90;;;26.26;69.50;100970.44;5013179;28;20380;-59
2021/08/16 11:04:05;;;;;;;;;;;26.60;99.90;;;26.22;70.14;100969.63;5011985;28;20296;-59
2021/08/16 11:06:33;;;;;;;;;;;26.50;99.90;;;26.23;69.91;100970.41;5012947;28;19925;-59
2021/08/16 11:09:02;;;;;;;;;;;26.50;99.90;;;26.38;68.89;100960.94;5012891;28;19933;-59
2021/08/16 11:11:32;;;;;;;;;;;26.70;99.90;;;26.30;68.95;100957.34;5012869;28;19930;-59
2021/08/16 11:14:07;;;;;;;;;;;26.60;99.90;;;26.33;69.50;100955.78;5011966;28;20032;-58